West Hartland, Connecticut
Current Conditions -  °F | °C
As of 12:51 PM on Thursday 18 Dec 2014 (Local Time) from KBDL Reporting Station
Overcast Overcast  
Wind Chill:   Ceiling: 3200
Heat Index:   Visibility: 10mi
Dew Point: -3°   Wind: 16mph
Humidity: 55%   Direction: 300°WNW
Pressure: 29.85"   Gusts: 21mph
Location:  42°N, 72.97°W
Report Text: KBDL 181751Z 30014G18KT 10SM OVC032 05/M03 A2985 RMK AO2 SLP108 BINOVC T00501033 10050 20028 58013
Loading
Personal Weather Stations






























Interactive Weather Map New forecast layout! Learn more

10-Day Weather Forecast

Advertisements
Track Severe Weather on mobile